Time;durP1;ratioP1;P1;durP2;ratioP2;P2;SDS_P1;SDS_P2;PMS_P1;PMS_P2;Temp;Humidity;BMP_temperature;BMP_pressure;BME280_temperature;BME280_humidity;BME280_pressure;Samples;Min_cycle;Max_cycle;Signal;HPM_P1;HPM_P2
2022/11/03 07:08:15;;;;;;;5.30;1.30;;;;;;;15.60;48.42;100381.22;10250092;27;1377286;-73
2022/11/03 07:13:13;;;;;;;3.72;1.50;;;;;;;16.69;47.22;100382.69;10270096;27;66098;-72
2022/11/03 07:18:19;;;;;;;3.17;1.45;;;;;;;17.13;47.05;100371.53;10263581;27;66379;-71
2022/11/03 07:23:17;;;;;;;3.70;1.45;;;;;;;17.46;46.88;100369.78;10265503;27;66718;-74
2022/11/03 07:28:09;;;;;;;4.22;1.40;;;;;;;17.46;47.41;100362.38;10264130;27;64359;-70
2022/11/03 07:33:09;;;;;;;4.82;1.58;;;;;;;17.56;47.59;100361.41;10263876;27;65520;-73
2022/11/03 07:38:02;;;;;;;3.75;1.55;;;;;;;17.83;47.52;100350.66;10270033;27;66865;-72
2022/11/03 07:42:57;;;;;;;3.38;1.38;;;;;;;17.95;47.43;100333.75;10243375;27;66337;-72
2022/11/03 07:47:49;;;;;;;10.75;1.58;;;;;;;17.99;47.71;100321.09;10259278;27;66065;-73
2022/11/03 07:52:41;;;;;;;13.70;2.00;;;;;;;18.11;47.85;100312.38;10259854;27;65726;-73
2022/11/03 07:57:34;;;;;;;9.73;2.22;;;;;;;18.09;47.58;100298.16;10258683;27;65289;-71
2022/11/03 08:02:31;;;;;;;13.60;2.40;;;;;;;18.52;47.52;100290.56;10250172;27;66155;-71
2022/11/03 08:07:23;;;;;;;13.10;2.40;;;;;;;18.85;47.16;100283.09;10250310;27;66552;-70
2022/11/03 08:12:15;;;;;;;11.60;2.15;;;;;;;18.94;47.33;100275.75;10256368;27;66312;-72
2022/11/03 08:17:07;;;;;;;6.55;2.10;;;;;;;18.88;47.32;100268.75;10226289;27;66037;-73
2022/11/03 08:22:01;;;;;;;18.95;2.20;;;;;;;18.69;47.62;100257.03;10221350;27;65212;-72
2022/11/03 08:26:53;;;;;;;17.02;2.83;;;;;;;18.75;47.70;100253.09;10224406;27;65421;-71
2022/11/03 08:31:45;;;;;;;16.98;2.85;;;;;;;18.97;47.35;100234.75;10228770;27;66371;-73
2022/11/03 08:36:37;;;;;;;14.88;2.63;;;;;;;19.25;47.27;100231.97;10238423;27;65193;-72
2022/11/03 08:41:30;;;;;;;16.15;2.60;;;;;;;19.43;47.15;100222.75;10235532;27;66350;-72
2022/11/03 08:46:23;;;;;;;13.15;2.50;;;;;;;19.66;46.96;100216.19;10233356;27;65746;-78
2022/11/03 08:51:15;;;;;;;17.23;2.80;;;;;;;20.51;45.17;100233.59;10237078;27;65971;-79
2022/11/03 08:56:07;;;;;;;11.63;1.90;;;;;;;21.81;42.62;100216.16;10234049;27;66054;-74
2022/11/03 09:01:00;;;;;;;8.63;2.78;;;;;;;18.12;48.12;100194.09;10236593;27;65994;-73
2022/11/03 09:05:53;;;;;;;12.30;3.35;;;;;;;18.03;49.13;100193.16;10224971;27;65320;-75
2022/11/03 09:10:45;;;;;;;12.90;2.65;;;;;;;19.37;46.94;100191.81;10236552;27;66323;-73
2022/11/03 09:15:37;;;;;;;8.25;2.97;;;;;;;19.92;46.11;100199.88;10237109;27;66561;-77
2022/11/03 09:20:31;;;;;;;6.65;2.45;;;;;;;19.87;46.56;100218.44;10236239;27;65622;-76
2022/11/03 09:25:23;;;;;;;11.52;2.28;;;;;;;19.97;46.67;100223.69;10232512;27;66538;-74
2022/11/03 09:30:16;;;;;;;7.88;2.67;;;;;;;19.99;46.86;100216.75;10227646;27;66304;-75
2022/11/03 09:35:08;;;;;;;9.77;2.28;;;;;;;20.01;47.14;100208.16;10237471;27;65568;-76
2022/11/03 09:40:03;;;;;;;6.65;2.58;;;;;;;20.08;47.09;100184.56;10241983;27;66440;-75
2022/11/03 09:44:55;;;;;;;3.92;2.10;;;;;;;20.22;47.13;100167.97;10227971;27;65700;-75
2022/11/03 09:49:47;;;;;;;3.70;1.70;;;;;;;20.19;47.37;100154.84;10240989;27;66483;-75
2022/11/03 09:54:39;;;;;;;3.72;1.63;;;;;;;20.32;47.19;100153.91;10236684;27;66062;-76
2022/11/03 09:59:32;;;;;;;4.78;2.00;;;;;;;20.43;47.29;100152.56;10236429;27;65310;-71
2022/11/03 10:04:26;;;;;;;7.43;1.90;;;;;;;20.39;47.36;100134.22;10232335;27;66316;-78
2022/11/03 10:09:19;;;;;;;7.68;2.20;;;;;;;20.35;47.79;100123.03;10234251;27;66555;-78
2022/11/03 10:14:12;;;;;;;5.50;1.92;;;;;;;20.45;47.71;100110.94;10236994;27;65499;-77
2022/11/03 10:19:05;;;;;;;4.75;1.67;;;;;;;20.40;47.85;100103.59;10231951;27;66692;-75
2022/11/03 10:23:58;;;;;;;4.60;1.80;;;;;;;20.47;47.93;100081.09;10236066;27;65129;-74
2022/11/03 10:28:59;;;;;;;6.85;1.75;;;;;;;20.58;47.79;100060.41;10229321;27;66408;-76
2022/11/03 10:33:52;;;;;;;6.82;1.80;;;;;;;20.61;47.85;100058.94;10231880;27;66190;-72
2022/11/03 10:38:46;;;;;;;3.35;1.60;;;;;;;20.73;47.82;100035.16;10232503;27;66373;-74
2022/11/03 10:43:39;;;;;;;3.10;1.55;;;;;;;20.60;48.19;100002.25;10238571;27;66242;-73
2022/11/03 10:48:31;;;;;;;2.70;1.45;;;;;;;20.60;48.33;99991.22;10213056;27;66635;-76
2022/11/03 10:53:23;;;;;;;3.08;1.52;;;;;;;20.64;48.34;99982.00;10234054;27;65705;-73
2022/11/03 10:58:17;;;;;;;3.95;1.88;;;;;;;20.60;48.49;99982.97;10237386;27;65588;-76
2022/11/03 11:03:11;;;;;;;4.07;1.70;;;;;;;20.64;48.60;99989.44;10240746;27;66121;-75
2022/11/03 11:08:03;;;;;;;5.10;1.60;;;;;;;20.70;48.39;99996.41;10237018;27;65411;-75
2022/11/03 11:13:05;;;;;;;1.80;1.20;;;;;;;20.66;48.70;99981.66;10231414;27;66128;-74
2022/11/03 11:17:59;;;;;;;2.15;1.30;;;;;;;20.65;48.51;99956.06;10235841;27;65784;-74
2022/11/03 11:22:51;;;;;;;3.63;1.60;;;;;;;20.61;48.88;99937.75;10235347;27;65567;-73
2022/11/03 11:27:58;;;;;;;7.53;1.80;;;;;;;18.95;50.22;99944.97;10225785;27;66560;-74
2022/11/03 11:32:55;;;;;;;7.05;2.13;;;;;;;18.83;49.07;99926.31;10222942;27;65759;-73
2022/11/03 11:37:49;;;;;;;5.35;2.00;;;;;;;18.48;48.58;99919.72;10224609;27;65539;-73
2022/11/03 11:43:14;;;;;;;5.90;1.90;;;;;;;18.03;49.99;99902.38;10231113;27;66463;-73
2022/11/03 11:48:15;;;;;;;7.97;2.22;;;;;;;18.39;49.42;99890.59;10223235;27;65603;-71
2022/11/03 11:53:18;;;;;;;4.25;2.10;;;;;;;18.18;49.90;99879.28;10234008;27;65443;-74
2022/11/03 11:58:25;;;;;;;5.65;1.98;;;;;;;18.08;50.18;99877.56;10239269;27;66494;-71
2022/11/03 12:03:26;;;;;;;6.65;2.50;;;;;;;17.90;50.42;99870.31;10238560;27;65574;-71
2022/11/03 12:08:20;;;;;;;7.20;2.00;;;;;;;17.41;51.46;99877.34;10242812;27;65636;-73
2022/11/03 12:13:37;;;;;;;7.68;2.47;;;;;;;17.60;51.62;99882.72;10243399;27;65287;-72
2022/11/03 12:18:33;;;;;;;5.07;1.83;;;;;;;18.78;49.19;99856.97;10217931;27;66431;-75
2022/11/03 12:23:42;;;;;;;3.35;1.80;;;;;;;19.20;48.48;99848.09;10240734;27;65377;-73
2022/11/03 12:28:36;;;;;;;4.78;2.10;;;;;;;19.31;48.55;99843.16;10234599;27;66247;-73
2022/11/03 12:33:28;;;;;;;4.45;1.90;;;;;;;19.52;48.53;99829.66;10237156;27;65580;-75
2022/11/03 12:38:20;;;;;;;4.97;1.90;;;;;;;19.64;48.25;99813.31;10234321;27;66303;-74
2022/11/03 12:43:14;;;;;;;4.32;1.75;;;;;;;19.72;48.32;99818.03;10232837;27;65931;-72
2022/11/03 12:48:06;;;;;;;3.22;1.65;;;;;;;19.81;48.35;99793.28;10222162;27;65981;-75
2022/11/03 12:52:59;;;;;;;6.63;1.80;;;;;;;19.70;48.98;99766.13;10225382;27;66321;-73
2022/11/03 12:57:51;;;;;;;5.55;2.13;;;;;;;19.71;48.90;99755.94;10238221;27;65720;-72
2022/11/03 13:02:44;;;;;;;3.72;1.45;;;;;;;19.71;49.04;99761.44;10226286;27;65604;-72
2022/11/03 13:07:37;;;;;;;7.03;1.75;;;;;;;19.76;49.12;99764.00;10229363;27;66136;-73
2022/11/03 13:12:32;;;;;;;5.55;1.77;;;;;;;19.74;49.03;99756.06;10237232;27;66202;-72
2022/11/03 13:17:24;;;;;;;3.22;1.70;;;;;;;19.77;48.91;99732.63;10228815;27;65922;-74
2022/11/03 13:22:18;;;;;;;4.20;1.50;;;;;;;19.87;48.70;99725.97;10222481;27;66337;-72
2022/11/03 13:27:10;;;;;;;2.92;1.60;;;;;;;19.75;49.09;99710.94;10242029;27;65635;-76
2022/11/03 13:32:02;;;;;;;3.45;1.60;;;;;;;19.78;49.14;99698.50;10226300;27;66415;-72
2022/11/03 13:36:55;;;;;;;7.38;1.80;;;;;;;19.66;49.28;99690.88;10240452;27;66212;-71
2022/11/03 13:41:48;;;;;;;5.53;2.28;;;;;;;18.66;51.07;99686.50;10226850;27;65618;-76
2022/11/03 13:46:40;;;;;;;11.73;2.60;;;;;;;18.13;51.72;99666.22;10240173;27;65724;-81
2022/11/03 13:51:32;;;;;;;8.25;2.20;;;;;;;18.46;50.85;99641.97;10220830;27;66386;-75
2022/11/03 13:56:24;;;;;;;7.15;2.30;;;;;;;18.19;51.37;99637.53;10218129;27;66322;-75
2022/11/03 14:01:18;;;;;;;7.10;2.30;;;;;;;18.15;51.57;99633.81;10244244;27;65432;-74
2022/11/03 14:06:10;;;;;;;4.70;2.28;;;;;;;17.84;52.17;99635.72;10226220;27;66425;-74
2022/11/03 14:12:29;;;;;;;4.40;1.95;;;;;;;17.98;52.27;99630.16;10239977;27;66800;-72
2022/11/03 14:16:14;;;;;;;7.68;1.88;;;;;;;19.08;49.97;99619.84;10242629;27;67024;-74
2022/11/03 14:21:07;;;;;;;6.72;2.22;;;;;;;19.40;49.56;99618.56;10236315;27;66504;-75
2022/11/03 14:25:59;;;;;;;5.95;2.40;;;;;;;19.48;49.61;99590.31;10236140;27;66348;-76
2022/11/03 14:30:51;;;;;;;7.15;2.38;;;;;;;19.59;49.60;99574.25;10238365;27;66275;-78
2022/11/03 14:35:43;;;;;;;4.50;2.05;;;;;;;19.68;49.63;99562.09;10237875;27;65015;-79
2022/11/03 14:45:46;;;;;;;21.30;4.53;;;;;;;19.49;50.91;99536.91;10240940;27;67120;-74
2022/11/03 14:50:38;;;;;;;27.30;5.57;;;;;;;19.33;51.61;99511.88;10217045;27;66361;-72
2022/11/03 14:55:30;;;;;;;29.85;5.43;;;;;;;19.32;51.64;99504.75;10215907;27;65474;-73
2022/11/03 15:00:24;;;;;;;32.78;5.95;;;;;;;19.28;51.68;99503.78;10210063;27;65633;-73
2022/11/03 15:10:22;;;;;;;39.45;6.15;;;;;;;19.28;52.16;99514.78;10219952;27;67064;-72
2022/11/03 15:15:14;;;;;;;53.60;7.25;;;;;;;19.18;52.43;99498.66;10230703;27;65707;-71
2022/11/03 15:20:09;;;;;;;40.25;6.72;;;;;;;19.27;52.22;99498.59;10227683;27;65491;-72
2022/11/03 15:25:01;;;;;;;46.33;7.75;;;;;;;19.36;52.25;99489.22;10221037;27;66329;-73
2022/11/03 15:29:53;;;;;;;46.80;6.28;;;;;;;19.43;51.89;99485.16;10231840;27;66338;-72
2022/11/03 15:34:46;;;;;;;45.92;6.22;;;;;;;19.43;51.95;99485.16;10228517;27;66304;-74
2022/11/03 15:39:39;;;;;;;48.88;5.90;;;;;;;19.45;51.95;99464.44;10229762;27;66296;-73
2022/11/03 15:44:31;;;;;;;32.22;6.07;;;;;;;19.50;51.74;99460.75;10225364;27;66389;-71
2022/11/03 15:49:23;;;;;;;39.38;5.70;;;;;;;19.48;51.65;99458.34;10227110;27;66398;-74
2022/11/03 15:54:15;;;;;;;28.67;5.68;;;;;;;19.53;51.77;99446.34;10233623;27;65951;-73
2022/11/03 15:59:09;;;;;;;30.02;4.97;;;;;;;19.49;51.71;99435.19;10223564;27;65612;-72
2022/11/03 16:04:01;;;;;;;31.92;5.47;;;;;;;19.52;52.36;99429.03;10236831;27;67150;-75
2022/11/03 16:08:53;;;;;;;38.70;5.85;;;;;;;19.38;52.54;99428.41;10239672;27;66090;-73
2022/11/03 16:13:45;;;;;;;36.17;5.60;;;;;;;19.41;52.34;99427.78;10224466;27;66412;-73
2022/11/03 16:18:38;;;;;;;28.13;5.30;;;;;;;19.14;53.06;99409.75;10242960;27;66064;-72
2022/11/03 16:23:30;;;;;;;43.55;6.20;;;;;;;19.24;53.48;99401.16;10220586;27;65091;-79
2022/11/03 16:28:23;;;;;;;24.50;5.00;;;;;;;19.26;54.44;99385.16;10227845;27;66158;-74
2022/11/03 16:33:15;;;;;;;32.05;5.50;;;;;;;19.29;53.98;99378.16;10218749;27;66269;-73
2022/11/03 16:38:08;;;;;;;31.20;5.57;;;;;;;19.14;53.95;99382.25;10225897;27;65020;-71
2022/11/03 16:43:01;;;;;;;24.13;5.20;;;;;;;19.09;53.88;99365.16;10245959;27;66468;-72
2022/11/03 16:47:53;;;;;;;27.88;5.65;;;;;;;19.10;53.87;99361.28;10248822;27;66358;-73
2022/11/03 16:52:45;;;;;;;22.10;4.93;;;;;;;19.09;53.80;99365.16;10251712;27;65515;-73
2022/11/03 16:57:39;;;;;;;30.48;5.07;;;;;;;19.12;53.49;99351.56;10249530;27;66379;-72
2022/11/03 17:02:31;;;;;;;22.90;4.85;;;;;;;19.13;53.73;99352.34;10249848;27;65649;-73
2022/11/03 17:07:23;;;;;;;21.05;4.78;;;;;;;19.24;53.22;99348.13;10248747;27;66371;-73
2022/11/03 17:12:15;;;;;;;29.27;5.43;;;;;;;19.22;53.30;99342.16;10251376;27;66406;-71
2022/11/03 17:17:08;;;;;;;29.35;5.00;;;;;;;19.37;52.78;99345.16;10249486;27;66919;-72
2022/11/03 17:22:01;;;;;;;19.02;4.72;;;;;;;19.40;52.65;99335.44;10249655;27;65571;-72
2022/11/03 17:26:54;;;;;;;25.65;5.47;;;;;;;19.47;52.30;99332.22;10248466;27;66349;-73
2022/11/03 17:31:46;;;;;;;21.63;4.53;;;;;;;19.49;52.27;99327.19;10241794;27;67433;-72
2022/11/03 17:36:40;;;;;;;16.75;4.35;;;;;;;19.43;52.41;99310.03;10241680;27;65332;-72
2022/11/03 17:41:35;;;;;;;23.15;4.22;;;;;;;19.43;52.31;99307.28;10236999;27;66101;-71
2022/11/03 17:46:27;;;;;;;19.65;4.22;;;;;;;19.38;52.51;99291.78;10248884;27;66544;-73
2022/11/03 17:51:19;;;;;;;15.82;4.30;;;;;;;19.42;52.59;99263.63;10230664;27;66270;-73
2022/11/03 17:56:15;;;;;;;12.85;4.50;;;;;;;19.42;52.51;99236.94;10249669;27;66398;-73
2022/11/03 18:01:08;;;;;;;19.08;4.07;;;;;;;19.31;52.81;99250.28;10248256;27;66428;-71
2022/11/03 18:06:00;;;;;;;22.10;4.38;;;;;;;19.36;52.67;99249.28;10239758;27;66373;-71
2022/11/03 18:10:53;;;;;;;15.27;3.65;;;;;;;19.28;53.08;99239.94;10248134;27;66287;-72
2022/11/03 18:15:48;;;;;;;16.60;4.10;;;;;;;19.29;52.94;99230.56;10249583;27;65609;-72
2022/11/03 18:20:40;;;;;;;12.85;3.35;;;;;;;19.24;53.04;99217.03;10249465;27;65639;-74
2022/11/03 18:25:32;;;;;;;11.40;3.80;;;;;;;19.16;53.35;99212.41;10243656;27;66407;-71
2022/11/03 18:30:24;;;;;;;10.52;3.53;;;;;;;19.17;53.39;99210.44;10248699;27;65450;-72
2022/11/03 18:35:20;;;;;;;11.32;3.33;;;;;;;19.00;53.67;99189.38;10228965;27;65484;-71
2022/11/03 18:40:13;;;;;;;14.43;3.72;;;;;;;19.02;53.98;99181.63;10227612;27;66375;-71
2022/11/03 18:45:10;;;;;;;12.05;3.55;;;;;;;19.06;53.83;99174.31;10223703;27;66901;-72
2022/11/03 18:50:02;;;;;;;13.60;3.65;;;;;;;19.05;53.81;99156.22;10238538;27;66334;-72
2022/11/03 18:54:55;;;;;;;10.50;3.38;;;;;;;19.05;53.94;99158.97;10245962;27;66336;-73
2022/11/03 18:59:47;;;;;;;10.63;3.45;;;;;;;19.02;53.96;99165.13;10246940;27;65612;-72
2022/11/03 19:04:39;;;;;;;10.80;3.28;;;;;;;19.05;53.98;99172.69;10248080;27;65683;-73
2022/11/03 19:09:31;;;;;;;10.55;3.30;;;;;;;19.06;53.76;99206.47;10246147;27;66301;-71
2022/11/03 19:14:26;;;;;;;8.00;3.20;;;;;;;19.09;53.83;99217.59;10245268;27;65438;-73
2022/11/03 19:19:18;;;;;;;9.10;3.00;;;;;;;19.10;53.76;99205.50;10246720;27;65568;-73
2022/11/03 19:24:10;;;;;;;10.40;3.40;;;;;;;19.10;53.86;99190.94;10247250;27;66480;-72
2022/11/03 19:29:04;;;;;;;9.90;2.97;;;;;;;19.09;53.81;99220.34;10246181;27;65580;-71
2022/11/03 19:33:58;;;;;;;12.95;3.30;;;;;;;19.10;53.93;99204.69;10246313;27;66942;-78
2022/11/03 19:38:50;;;;;;;8.35;3.35;;;;;;;19.09;53.94;99192.06;10246645;27;66364;-72
2022/11/03 19:43:42;;;;;;;9.10;3.35;;;;;;;19.09;53.80;99172.84;10246460;27;66504;-74
2022/11/03 19:48:34;;;;;;;5.95;2.65;;;;;;;19.11;53.79;99157.66;10245541;27;66763;-73
2022/11/03 19:53:28;;;;;;;8.65;3.03;;;;;;;19.11;53.87;99143.09;10245576;27;66718;-77
2022/11/03 19:58:20;;;;;;;8.35;2.72;;;;;;;19.10;53.80;99141.50;10245916;27;66321;-71
2022/11/03 20:03:12;;;;;;;10.98;2.78;;;;;;;19.11;53.71;99137.59;10246344;27;65567;-77
2022/11/03 20:08:06;;;;;;;7.13;2.92;;;;;;;19.12;53.74;99140.00;10245764;27;67384;-73
2022/11/03 20:13:00;;;;;;;6.65;2.63;;;;;;;19.10;53.83;99142.31;10243051;27;65632;-74
2022/11/03 20:17:52;;;;;;;6.30;2.60;;;;;;;19.11;53.79;99146.66;10251868;27;65567;-73
2022/11/03 20:22:46;;;;;;;6.18;2.55;;;;;;;19.11;53.95;99143.09;10253510;27;65646;-77
2022/11/03 20:27:38;;;;;;;7.15;2.67;;;;;;;19.12;53.75;99122.75;10243595;27;66155;-73
